Terminal Aerodrome Forecast
Issued by NWS

Home | Current Version | Previous Version | Graphics & Text | Print | Product List | Glossary On
Versions: 1 2 3 4 5 6 7 8 9 10 11 12 13 14 15 16 17 18 19 20 21 22 23 24 25 26
241
FTUS43 KABR 271739
TAFATY
TAF
KATY 271739Z 2718/2818 07022G31KT P6SM -RA OVC070
     FM280000 07020G28KT P6SM -SHRA OVC015
     FM280700 06015KT P6SM -SHRA OVC020
     FM281300 05011KT 4SM -SHRASN OVC015
     FM281600 05009KT P6SM -SHRA OVC025=

USA.gov is the U.S. government's official web portal to all federal, state and local government web resources and services.